createdAt,value
2018-08-16T00:00:59.360Z,99.44
2018-08-16T00:03:28.643Z,99.25
2018-08-16T00:05:57.943Z,99.61
2018-08-16T00:08:27.233Z,100.00
2018-08-16T00:10:56.510Z,100.00
2018-08-16T00:13:25.755Z,100.00
2018-08-16T00:15:55.020Z,100.00
2018-08-16T00:18:24.281Z,100.00
2018-08-16T00:20:53.542Z,100.00
2018-08-16T00:23:22.816Z,100.00
2018-08-16T00:25:52.095Z,100.00
2018-08-16T00:28:21.362Z,100.00
2018-08-16T00:30:50.603Z,100.00
2018-08-16T00:33:19.858Z,100.00
2018-08-16T00:35:49.099Z,100.00
2018-08-16T00:38:18.363Z,100.00
2018-08-16T00:40:47.646Z,100.00
2018-08-16T00:43:16.890Z,100.00
2018-08-16T00:45:46.185Z,100.00
2018-08-16T00:48:15.475Z,100.00
2018-08-16T00:50:44.732Z,100.00
2018-08-16T00:53:14.007Z,100.00
2018-08-16T00:55:44.491Z,100.00
2018-08-16T00:58:13.738Z,100.00
2018-08-16T01:00:42.993Z,100.00
2018-08-16T01:03:12.256Z,100.00
2018-08-16T01:05:41.501Z,100.00
2018-08-16T01:08:10.767Z,100.00
2018-08-16T01:10:39.992Z,100.00
2018-08-16T01:13:09.283Z,100.00
2018-08-16T01:15:38.539Z,100.00
2018-08-16T01:18:07.780Z,100.00
2018-08-16T01:20:37.298Z,100.00
2018-08-16T01:23:06.695Z,100.00
2018-08-16T01:25:35.924Z,100.00
2018-08-16T01:28:05.186Z,100.00
2018-08-16T01:30:34.434Z,100.00
2018-08-16T01:33:03.703Z,100.00
2018-08-16T01:35:32.974Z,100.00
2018-08-16T01:38:02.205Z,100.00
2018-08-16T01:40:31.455Z,100.00
2018-08-16T01:43:00.691Z,100.00
2018-08-16T01:45:30.203Z,100.00
2018-08-16T01:47:59.466Z,100.00
2018-08-16T01:50:28.710Z,100.00
2018-08-16T01:52:57.995Z,100.00
2018-08-16T01:55:27.214Z,100.00
2018-08-16T01:57:56.492Z,100.00
2018-08-16T02:00:25.720Z,100.00
2018-08-16T02:02:54.989Z,100.00
2018-08-16T02:05:24.242Z,100.00
2018-08-16T02:07:53.535Z,100.00
2018-08-16T02:10:22.785Z,100.00
2018-08-16T02:12:52.038Z,100.00
2018-08-16T02:15:21.299Z,100.00
2018-08-16T02:17:50.559Z,100.00
2018-08-16T02:20:20.578Z,100.00
2018-08-16T02:22:49.802Z,100.00
2018-08-16T02:25:19.044Z,100.00
2018-08-16T02:27:48.298Z,100.00
2018-08-16T02:30:17.540Z,100.00
2018-08-16T02:32:46.780Z,100.00
2018-08-16T02:35:16.019Z,100.00
2018-08-16T02:37:45.260Z,100.00
2018-08-16T02:40:14.506Z,100.00
2018-08-16T02:42:43.761Z,100.00
2018-08-16T02:45:12.990Z,100.00
2018-08-16T02:47:42.223Z,100.00
2018-08-16T02:50:11.448Z,100.00
2018-08-16T02:52:40.685Z,100.00
2018-08-16T02:55:09.922Z,100.00
2018-08-16T02:57:39.173Z,100.00
2018-08-16T03:00:09.821Z,100.00
2018-08-16T03:02:39.222Z,100.00
2018-08-16T03:05:08.463Z,100.00
2018-08-16T03:07:37.714Z,100.00
2018-08-16T03:10:08.272Z,100.00
2018-08-16T03:12:37.523Z,100.00
2018-08-16T03:15:08.901Z,100.00
2018-08-16T03:17:38.155Z,100.00
2018-08-16T03:20:07.522Z,100.00
2018-08-16T03:22:36.969Z,100.00
2018-08-16T03:25:06.211Z,100.00
2018-08-16T03:27:35.463Z,100.00
2018-08-16T03:30:04.883Z,100.00
2018-08-16T03:32:34.136Z,100.00
2018-08-16T03:40:00.218Z,100.00
2018-08-16T03:42:29.471Z,100.00
2018-08-16T03:44:58.734Z,100.00
2018-08-16T03:47:28.345Z,100.00
2018-08-16T03:49:57.609Z,100.00
2018-08-16T03:52:26.848Z,100.00
2018-08-16T03:54:56.090Z,100.00
2018-08-16T03:57:25.323Z,100.00
2018-08-16T03:59:54.551Z,100.00
2018-08-16T04:02:23.811Z,100.00
2018-08-16T04:04:53.055Z,100.00
2018-08-16T04:07:22.286Z,100.00
2018-08-16T04:09:51.507Z,100.00
2018-08-16T04:12:20.739Z,100.00
2018-08-16T04:14:49.969Z,100.00
2018-08-16T04:17:19.202Z,100.00
2018-08-16T04:19:48.464Z,100.00
2018-08-16T04:22:17.710Z,100.00
2018-08-16T04:24:46.941Z,100.00
2018-08-16T04:27:16.187Z,100.00
2018-08-16T04:29:45.460Z,100.00
2018-08-16T04:32:14.694Z,100.00
2018-08-16T04:34:43.972Z,100.00
2018-08-16T04:37:13.219Z,99.78
2018-08-16T04:39:42.553Z,100.00
2018-08-16T04:42:11.800Z,100.00
2018-08-16T04:44:42.449Z,100.00
2018-08-16T04:47:11.712Z,99.58
2018-08-16T04:49:40.940Z,99.12
2018-08-16T04:52:10.413Z,99.38
2018-08-16T04:54:39.658Z,99.08
2018-08-16T04:57:08.887Z,99.16
2018-08-16T04:59:38.130Z,99.04
2018-08-16T05:02:07.432Z,98.97
2018-08-16T05:04:36.660Z,98.63
2018-08-16T05:07:05.894Z,98.57
2018-08-16T05:09:35.115Z,98.62
2018-08-16T05:12:04.343Z,98.28
2018-08-16T05:14:33.559Z,97.08
2018-08-16T05:17:02.823Z,98.32
2018-08-16T05:19:32.043Z,96.64
2018-08-16T05:22:01.287Z,97.25
2018-08-16T05:24:30.542Z,95.19
2018-08-16T05:26:59.754Z,81.41
2018-08-16T05:29:28.998Z,65.82
2018-08-16T05:31:58.226Z,64.67
2018-08-16T05:34:27.474Z,67.06
2018-08-16T05:36:56.689Z,60.88
2018-08-16T05:39:25.939Z,54.96
2018-08-16T05:41:55.178Z,55.64
2018-08-16T05:44:24.431Z,53.84
2018-08-16T05:46:53.699Z,54.23
2018-08-16T05:49:22.957Z,55.38
2018-08-16T05:51:52.213Z,53.10
2018-08-16T05:54:21.429Z,52.91
2018-08-16T05:56:50.683Z,51.17
2018-08-16T05:59:19.963Z,50.44
2018-08-16T06:01:49.199Z,50.18
2018-08-16T06:04:18.438Z,48.44
2018-08-16T06:06:47.691Z,46.48
2018-08-16T06:09:16.962Z,44.30
2018-08-16T06:11:46.208Z,43.14
2018-08-16T06:14:15.482Z,41.20
2018-08-16T06:16:44.767Z,41.47
2018-08-16T06:19:14.008Z,38.91
2018-08-16T06:21:43.255Z,36.88
2018-08-16T06:24:12.491Z,36.25
2018-08-16T06:26:41.727Z,36.57
2018-08-16T06:29:10.995Z,36.89
2018-08-16T06:31:40.312Z,34.27
2018-08-16T06:34:09.527Z,33.98
2018-08-16T06:36:38.772Z,34.06
2018-08-16T06:39:11.046Z,34.37
2018-08-16T06:41:40.880Z,35.05
2018-08-16T06:44:10.455Z,31.98
2018-08-16T06:46:39.838Z,30.17
2018-08-16T06:49:23.415Z,31.39
2018-08-16T06:51:52.642Z,28.20
2018-08-16T06:54:21.887Z,28.56
2018-08-16T06:56:51.114Z,29.22
2018-08-16T06:59:20.355Z,27.14
2018-08-16T07:01:49.578Z,27.98
2018-08-16T07:04:18.806Z,28.54
2018-08-16T07:06:48.052Z,27.74
2018-08-16T07:09:17.323Z,26.97
2018-08-16T07:11:46.582Z,26.85
2018-08-16T07:14:15.835Z,29.86
2018-08-16T07:16:45.083Z,28.17
2018-08-16T07:19:14.298Z,34.05
2018-08-16T07:21:43.543Z,31.50
2018-08-16T07:24:12.772Z,25.79
2018-08-16T07:29:41.540Z,25.47
2018-08-16T07:32:10.758Z,26.74
2018-08-16T07:34:39.996Z,27.42
2018-08-16T07:37:09.230Z,22.85
2018-08-16T07:39:38.493Z,30.11
2018-08-16T07:42:07.718Z,28.04
2018-08-16T07:44:37.078Z,29.79
2018-08-16T07:47:06.795Z,29.03
2018-08-16T07:49:36.067Z,25.55
2018-08-16T07:52:05.380Z,26.42
2018-08-16T07:54:34.554Z,22.70
2018-08-16T07:57:03.876Z,23.01
2018-08-16T07:59:33.174Z,25.69
2018-08-16T08:02:02.420Z,25.75
2018-08-16T08:04:31.666Z,26.82
2018-08-16T08:07:00.888Z,28.44
2018-08-16T08:09:30.352Z,27.83
2018-08-16T08:11:59.411Z,24.78
2018-08-16T08:14:29.914Z,20.98
2018-08-16T08:16:59.191Z,23.72
2018-08-16T08:19:28.419Z,23.38
2018-08-16T08:21:57.732Z,24.28
2018-08-16T08:24:26.983Z,28.08
2018-08-16T08:26:56.210Z,22.58
2018-08-16T08:29:25.466Z,28.67
2018-08-16T08:31:54.711Z,27.59
2018-08-16T08:34:24.687Z,28.11
2018-08-16T08:37:11.158Z,30.10
2018-08-16T08:39:40.403Z,28.36
2018-08-16T08:42:09.693Z,33.34
2018-08-16T08:44:38.977Z,32.49
2018-08-16T08:47:08.212Z,21.93
2018-08-16T08:49:37.488Z,25.86
2018-08-16T08:52:06.739Z,20.11
2018-08-16T08:54:54.110Z,19.67
2018-08-16T08:57:40.228Z,29.17
2018-08-16T09:00:09.554Z,29.73
2018-08-16T09:02:38.780Z,31.95
2018-08-16T09:05:08.324Z,32.33
2018-08-16T09:07:37.619Z,25.47
2018-08-16T09:11:21.011Z,28.73
2018-08-16T09:14:08.107Z,25.93
2018-08-16T09:16:39.339Z,29.21
2018-08-16T09:19:09.323Z,28.88
2018-08-16T09:21:38.695Z,28.04
2018-08-16T09:24:08.104Z,26.82
2018-08-16T09:26:41.802Z,30.09
2018-08-16T09:30:36.281Z,20.44
2018-08-16T09:33:22.320Z,22.53
2018-08-16T09:35:51.593Z,17.89
2018-08-16T09:38:20.893Z,20.55
2018-08-16T09:40:50.158Z,18.54
2018-08-16T09:43:19.551Z,18.45
2018-08-16T09:47:12.434Z,19.62
2018-08-16T09:49:48.483Z,18.20
2018-08-16T09:52:18.059Z,19.09
2018-08-16T09:54:47.446Z,17.64
2018-08-16T09:57:17.095Z,17.94
2018-08-16T09:59:46.349Z,18.08
2018-08-16T10:02:17.542Z,17.26
2018-08-16T10:04:46.601Z,18.87
2018-08-16T10:07:15.824Z,22.96
2018-08-16T10:09:45.100Z,27.88
2018-08-16T10:12:14.338Z,20.31
2018-08-16T10:14:43.588Z,19.76
2018-08-16T10:17:12.841Z,25.76
2018-08-16T10:19:42.116Z,16.22
2018-08-16T10:22:11.376Z,16.17
2018-08-16T10:24:40.625Z,18.65
2018-08-16T10:27:09.883Z,15.95
2018-08-16T10:29:39.115Z,23.24
2018-08-16T10:32:08.359Z,20.85
2018-08-16T10:34:37.624Z,20.20
2018-08-16T10:37:06.982Z,17.09
2018-08-16T10:39:36.160Z,20.93
2018-08-16T10:42:05.450Z,21.34
2018-08-16T10:44:34.748Z,15.99
2018-08-16T10:47:03.983Z,16.36
2018-08-16T10:49:33.243Z,21.67
2018-08-16T10:52:02.490Z,17.64
2018-08-16T10:54:31.747Z,21.96
2018-08-16T10:57:00.998Z,17.98
2018-08-16T10:59:30.271Z,14.63
2018-08-16T11:01:59.498Z,19.24
2018-08-16T11:04:29.046Z,18.49
2018-08-16T11:06:58.318Z,15.91
2018-08-16T11:11:55.318Z,17.03
2018-08-16T11:14:24.551Z,22.03
2018-08-16T11:16:53.923Z,20.72
2018-08-16T11:19:23.185Z,21.33
2018-08-16T11:21:52.551Z,17.28
2018-08-16T11:24:21.762Z,16.00
2018-08-16T11:26:51.027Z,17.39
2018-08-16T11:29:20.271Z,21.90
2018-08-16T11:31:49.513Z,18.66
2018-08-16T11:34:18.767Z,26.65
2018-08-16T11:36:47.973Z,29.04
2018-08-16T11:39:17.264Z,19.42
2018-08-16T11:41:46.491Z,20.64
2018-08-16T11:44:15.775Z,20.38
2018-08-16T11:46:45.013Z,26.43
2018-08-16T11:49:14.296Z,19.21
2018-08-16T11:51:43.558Z,16.40
2018-08-16T11:54:12.838Z,21.87
2018-08-16T11:56:42.063Z,27.04
2018-08-16T11:59:11.301Z,19.52
2018-08-16T12:01:40.561Z,17.71
2018-08-16T12:04:09.812Z,15.96
2018-08-16T12:06:39.205Z,16.53
2018-08-16T12:09:09.690Z,17.77
2018-08-16T12:11:38.923Z,17.31
2018-08-16T12:14:08.182Z,18.69
2018-08-16T12:16:37.398Z,15.01
2018-08-16T12:19:06.639Z,16.54
2018-08-16T12:21:35.912Z,15.49
2018-08-16T12:24:05.189Z,21.29
2018-08-16T12:26:34.439Z,22.89
2018-08-16T12:29:03.771Z,22.86
2018-08-16T12:31:33.011Z,27.84
2018-08-16T12:34:02.273Z,26.51
2018-08-16T12:36:31.504Z,29.23
2018-08-16T12:39:01.057Z,30.96
2018-08-16T12:41:31.216Z,30.13
2018-08-16T12:44:00.450Z,31.28
2018-08-16T12:46:29.715Z,29.33
2018-08-16T12:48:58.979Z,24.25
2018-08-16T12:51:28.208Z,24.29
2018-08-16T12:53:57.484Z,22.81
2018-08-16T12:56:26.748Z,22.11
2018-08-16T12:58:56.232Z,24.44
2018-08-16T13:01:25.501Z,32.69
2018-08-16T13:03:54.789Z,29.08
2018-08-16T13:06:24.011Z,33.91
2018-08-16T13:08:53.306Z,30.32
2018-08-16T13:11:22.503Z,33.44
2018-08-16T13:13:51.715Z,30.22
2018-08-16T13:16:20.934Z,34.25
2018-08-16T13:18:50.188Z,31.14
2018-08-16T13:21:19.440Z,29.97
2018-08-16T13:23:48.671Z,31.38
2018-08-16T13:26:17.936Z,29.61
2018-08-16T13:28:47.179Z,35.76
2018-08-16T13:31:16.580Z,36.27
2018-08-16T13:33:45.811Z,39.23
2018-08-16T13:36:15.064Z,35.86
2018-08-16T13:38:44.347Z,34.61
2018-08-16T13:41:13.606Z,38.02
2018-08-16T13:43:42.859Z,34.17
2018-08-16T13:46:12.112Z,34.08
2018-08-16T13:48:41.371Z,36.58
2018-08-16T13:51:10.611Z,37.54
2018-08-16T13:53:39.859Z,36.29
2018-08-16T13:56:09.115Z,36.11
2018-08-16T13:58:38.387Z,36.24
2018-08-16T14:01:07.606Z,34.51
2018-08-16T14:03:36.826Z,31.29
2018-08-16T14:06:07.831Z,36.16
2018-08-16T14:08:37.057Z,33.90
2018-08-16T14:11:06.603Z,38.05
2018-08-16T14:13:35.835Z,37.18
2018-08-16T14:16:05.093Z,38.08
2018-08-16T14:18:34.421Z,39.48
2018-08-16T14:21:03.659Z,38.24
2018-08-16T14:23:32.946Z,37.80
2018-08-16T14:26:02.240Z,38.07
2018-08-16T14:28:31.407Z,35.90
2018-08-16T14:31:00.635Z,37.86
2018-08-16T14:33:29.871Z,36.76
2018-08-16T14:35:59.104Z,37.76
2018-08-16T14:38:28.330Z,35.99
2018-08-16T14:40:57.571Z,35.69
2018-08-16T14:43:26.804Z,37.51
2018-08-16T14:45:56.040Z,35.44
2018-08-16T14:48:25.274Z,37.15
2018-08-16T14:50:54.533Z,37.78
2018-08-16T14:53:23.764Z,36.78
2018-08-16T14:55:52.982Z,38.95
2018-08-16T14:58:22.219Z,40.04
2018-08-16T15:00:51.442Z,38.92
2018-08-16T15:03:20.670Z,36.85
2018-08-16T15:05:49.902Z,38.05
2018-08-16T15:08:19.129Z,39.85
2018-08-16T15:10:48.421Z,39.06
2018-08-16T15:13:17.610Z,38.27
2018-08-16T15:15:46.822Z,40.36
2018-08-16T15:18:17.302Z,40.27
2018-08-16T15:20:46.545Z,40.40
2018-08-16T15:23:15.784Z,36.67
2018-08-16T15:25:45.059Z,39.02
2018-08-16T15:28:14.298Z,37.96
2018-08-16T15:30:43.558Z,39.24
2018-08-16T15:33:12.802Z,38.65
2018-08-16T15:35:42.039Z,37.78
2018-08-16T15:38:11.255Z,36.21
2018-08-16T15:40:40.524Z,35.92
2018-08-16T15:43:09.740Z,35.91
2018-08-16T15:45:39.012Z,39.34
2018-08-16T15:48:15.222Z,39.57
2018-08-16T15:50:45.390Z,39.24
2018-08-16T15:53:14.627Z,39.26
2018-08-16T15:55:43.864Z,40.17
2018-08-16T15:58:13.102Z,39.92
2018-08-16T16:00:42.328Z,41.11
2018-08-16T16:03:11.599Z,39.05
2018-08-16T16:05:40.875Z,40.12
2018-08-16T16:08:10.065Z,39.29
2018-08-16T16:10:39.307Z,37.49
2018-08-16T16:13:08.569Z,39.45
2018-08-16T16:15:37.770Z,37.01
2018-08-16T16:18:07.367Z,39.88
2018-08-16T16:20:36.628Z,37.50
2018-08-16T16:23:05.911Z,38.51
2018-08-16T16:25:35.138Z,38.73
2018-08-16T16:28:04.386Z,38.20
2018-08-16T16:30:33.722Z,40.07
2018-08-16T16:33:02.966Z,40.58
2018-08-16T16:35:32.220Z,39.43
2018-08-16T16:38:01.483Z,40.05
2018-08-16T16:40:30.778Z,40.76
2018-08-16T16:43:00.015Z,38.86
2018-08-16T16:45:29.242Z,41.79
2018-08-16T16:47:58.480Z,41.78
2018-08-16T16:50:27.719Z,40.23
2018-08-16T16:52:57.220Z,39.59
2018-08-16T16:55:26.434Z,39.15
2018-08-16T16:57:55.682Z,40.18
2018-08-16T17:00:24.918Z,40.66
2018-08-16T17:02:54.189Z,42.51
2018-08-16T17:05:23.406Z,42.96
2018-08-16T17:07:53.685Z,41.20
2018-08-16T17:10:23.029Z,42.03
2018-08-16T17:12:52.251Z,40.92
2018-08-16T17:15:21.487Z,44.38
2018-08-16T17:17:50.724Z,43.52
2018-08-16T17:20:19.950Z,43.31
2018-08-16T17:22:49.179Z,42.27
2018-08-16T17:25:18.394Z,43.59
2018-08-16T17:27:47.635Z,43.81
2018-08-16T17:30:16.863Z,44.66
2018-08-16T17:32:46.102Z,45.04
2018-08-16T17:35:15.319Z,44.95
2018-08-16T17:37:44.583Z,44.10
2018-08-16T17:42:42.087Z,44.67
2018-08-16T17:45:11.316Z,46.86
2018-08-16T17:47:40.595Z,47.92
2018-08-16T17:50:10.040Z,47.81
2018-08-16T17:52:39.367Z,46.73
2018-08-16T17:55:08.734Z,47.97
2018-08-16T17:57:37.986Z,47.71
2018-08-16T18:00:09.198Z,50.81
2018-08-16T18:02:38.583Z,52.39
2018-08-16T18:05:07.807Z,56.18
2018-08-16T18:07:37.030Z,53.08
2018-08-16T18:10:07.411Z,55.21
2018-08-16T18:12:37.869Z,57.25
2018-08-16T18:15:10.171Z,61.02
2018-08-16T18:17:39.397Z,60.28
2018-08-16T18:20:08.721Z,60.88
2018-08-16T18:22:38.167Z,59.62
2018-08-16T18:25:08.071Z,59.95
2018-08-16T18:27:37.548Z,61.40
2018-08-16T18:30:08.834Z,61.17
2018-08-16T18:32:38.068Z,62.60
2018-08-16T18:35:07.314Z,66.82
2018-08-16T18:37:36.583Z,68.67
2018-08-16T18:40:06.768Z,69.76
2018-08-16T18:42:36.060Z,70.03
2018-08-16T18:45:05.824Z,68.95
2018-08-16T18:47:35.066Z,71.48
2018-08-16T18:50:04.322Z,72.22
2018-08-16T18:52:33.543Z,70.70
2018-08-16T18:55:03.059Z,71.77
2018-08-16T18:57:32.289Z,72.87
2018-08-16T19:00:01.548Z,74.48
2018-08-16T19:02:30.795Z,74.19
2018-08-16T19:05:00.040Z,75.28
2018-08-16T19:07:29.345Z,75.93
2018-08-16T19:09:58.483Z,76.17
2018-08-16T19:12:27.706Z,77.97
2018-08-16T19:14:56.936Z,78.13
2018-08-16T19:17:26.187Z,78.89
2018-08-16T19:19:55.414Z,78.23
2018-08-16T19:22:24.651Z,78.45
2018-08-16T19:24:53.942Z,78.62
2018-08-16T19:27:23.187Z,79.97
2018-08-16T19:29:52.446Z,80.57
2018-08-16T19:32:21.650Z,81.24
2018-08-16T19:34:50.907Z,80.44
2018-08-16T19:37:20.120Z,82.10
2018-08-16T19:39:49.347Z,82.51
2018-08-16T19:42:18.842Z,82.50
2018-08-16T19:44:48.113Z,81.85
2018-08-16T19:47:17.334Z,82.70
2018-08-16T19:49:46.614Z,83.27
2018-08-16T19:52:15.914Z,83.18
2018-08-16T19:54:45.141Z,83.28
2018-08-16T19:57:14.463Z,83.00
2018-08-16T19:59:43.710Z,83.29
2018-08-16T20:02:13.202Z,84.22
2018-08-16T20:04:42.502Z,85.29
2018-08-16T20:07:11.859Z,86.52
2018-08-16T20:09:41.003Z,86.04
2018-08-16T20:12:10.228Z,86.10
2018-08-16T20:14:39.461Z,86.02
2018-08-16T20:17:08.696Z,86.03
2018-08-16T20:19:38.094Z,86.38
2018-08-16T20:22:16.302Z,87.19
2018-08-16T20:24:45.967Z,85.29
2018-08-16T20:27:15.350Z,84.92
2018-08-16T20:29:45.249Z,86.23
2018-08-16T20:32:14.587Z,87.19
2018-08-16T20:34:43.840Z,88.44
2018-08-16T20:37:13.075Z,88.09
2018-08-16T20:39:42.330Z,88.19
2018-08-16T20:42:12.811Z,87.58
2018-08-16T20:44:42.054Z,88.12
2018-08-16T20:47:11.273Z,88.47
2018-08-16T20:49:40.515Z,89.42
2018-08-16T20:52:09.741Z,89.62
2018-08-16T20:54:39.174Z,89.33
2018-08-16T20:57:08.419Z,88.57
2018-08-16T20:59:37.649Z,89.54
2018-08-16T21:02:06.931Z,90.19
2018-08-16T21:04:36.191Z,90.03
2018-08-16T21:07:05.703Z,90.68
2018-08-16T21:09:34.943Z,89.44
2018-08-16T21:12:04.217Z,89.28
2018-08-16T21:14:33.500Z,88.31
2018-08-16T21:17:02.716Z,89.77
2018-08-16T21:19:32.182Z,91.16
2018-08-16T21:22:01.505Z,92.01
2018-08-16T21:24:30.728Z,89.54
2018-08-16T21:26:59.968Z,89.93
2018-08-16T21:29:29.235Z,91.39
2018-08-16T21:31:58.472Z,91.98
2018-08-16T21:34:27.727Z,92.44
2018-08-16T21:36:57.002Z,92.63
2018-08-16T21:39:26.248Z,91.73
2018-08-16T21:41:55.493Z,92.60
2018-08-16T21:44:24.819Z,93.36
2018-08-16T21:46:54.060Z,92.15
2018-08-16T21:49:23.293Z,93.03
2018-08-16T21:51:52.550Z,92.85
2018-08-16T21:54:21.766Z,94.00
2018-08-16T21:56:51.027Z,94.08
2018-08-16T21:59:20.332Z,94.72
2018-08-16T22:01:49.601Z,94.01
2018-08-16T22:04:18.843Z,93.92
2018-08-16T22:07:05.671Z,94.40
2018-08-16T22:09:34.911Z,94.25
2018-08-16T22:12:04.172Z,94.72
2018-08-16T22:14:33.430Z,94.40
2018-08-16T22:17:02.675Z,94.44
2018-08-16T22:19:31.913Z,94.44
2018-08-16T22:22:01.127Z,94.92
2018-08-16T22:24:30.391Z,95.36
2018-08-16T22:26:59.614Z,95.53
2018-08-16T22:29:28.884Z,95.85
2018-08-16T22:31:58.111Z,96.09
2018-08-16T22:34:27.346Z,96.50
2018-08-16T22:36:56.587Z,96.42
2018-08-16T22:39:25.814Z,96.92
2018-08-16T22:41:55.099Z,96.41
2018-08-16T22:44:24.338Z,95.78
2018-08-16T22:46:53.580Z,96.28
2018-08-16T22:49:22.819Z,94.73
2018-08-16T22:51:52.142Z,95.59
2018-08-16T22:54:21.303Z,96.04
2018-08-16T22:56:50.553Z,96.33
2018-08-16T22:59:19.806Z,96.65
2018-08-16T23:01:49.151Z,96.66
2018-08-16T23:04:18.391Z,96.42
2018-08-16T23:06:47.643Z,94.18
2018-08-16T23:09:16.918Z,95.14
2018-08-16T23:11:46.222Z,96.79
2018-08-16T23:14:15.482Z,96.63
2018-08-16T23:16:44.743Z,97.10
2018-08-16T23:19:14.008Z,97.32
2018-08-16T23:21:43.269Z,97.12
2018-08-16T23:24:12.499Z,96.87
2018-08-16T23:26:41.736Z,96.85
2018-08-16T23:29:10.979Z,97.38
2018-08-16T23:31:40.247Z,97.21
2018-08-16T23:34:09.503Z,97.75
2018-08-16T23:36:38.811Z,97.88
2018-08-16T23:39:08.199Z,98.37
2018-08-16T23:41:37.464Z,98.20
2018-08-16T23:44:06.803Z,98.03
2018-08-16T23:46:36.339Z,97.35
2018-08-16T23:49:05.594Z,96.87
2018-08-16T23:51:34.830Z,97.44
2018-08-16T23:54:04.088Z,98.12
2018-08-16T23:56:33.326Z,97.88
2018-08-16T23:59:02.564Z,98.33
